Terminal Aerodrome Forecast
Issued by NWS Louisville, KY

Home | Current Version | Previous Version | Text Only | Print | Product List | Glossary Off
Versions: 1 2 3 4 5 6 7 8 9 10 11 12 13 14 15 16 17 18 19 20 21

000
FTUS43 KLMK 180500
TAFBWG
TAF
KBWG 180520Z 1806/1906 00000KT P6SM BKN060
     FM181000 00000KT 6SM BR BKN050
      TEMPO 1810/1813 2SM BR
     FM181400 05005KT P6SM SCT050=

USA.gov is the U.S. government's official web portal to all federal, state and local government web resources and services.